Time;durP1;ratioP1;P1;durP2;ratioP2;P2;SDS_P1;SDS_P2;PMS_P1;PMS_P2;Temp;Humidity;BMP_temperature;BMP_pressure;BME280_temperature;BME280_humidity;BME280_pressure;Samples;Min_cycle;Max_cycle;Signal;HPM_P1;HPM_P2
2024/04/05 00:00:46;;;;;;;6.50;1.88;;;12.30;99.90;;;;;;5120424;28;20077;-37
2024/04/05 00:03:18;;;;;;;8.88;2.03;;;12.40;99.90;;;;;;5111537;28;20454;-33
2024/04/05 00:05:43;;;;;;;8.07;1.80;;;12.30;99.90;;;;;;5113104;28;20034;-34
2024/04/05 00:08:09;;;;;;;5.25;1.63;;;12.30;99.90;;;;;;5112584;28;20262;-38
2024/04/05 00:10:40;;;;;;;5.82;2.42;;;12.30;99.90;;;;;;5100899;28;20161;-33
2024/04/05 00:13:06;;;;;;;7.63;1.88;;;12.40;99.90;;;;;;5111891;28;20068;-36
2024/04/05 00:15:37;;;;;;;8.20;1.60;;;12.30;99.90;;;;;;5106992;28;20039;-37
2024/04/05 00:18:03;;;;;;;7.85;2.72;;;12.40;99.90;;;;;;5116350;27;20156;-40
2024/04/05 00:20:28;;;;;;;7.35;2.33;;;12.30;99.90;;;;;;5100289;28;20048;-37
2024/04/05 00:22:54;;;;;;;6.78;2.00;;;12.30;99.90;;;;;;5110484;28;20207;-37
2024/04/05 00:25:19;;;;;;;6.90;1.90;;;12.30;99.90;;;;;;5106266;28;20027;-37
2024/04/05 00:27:45;;;;;;;8.25;2.13;;;12.30;99.90;;;;;;5113569;28;20109;-37
2024/04/05 00:30:11;;;;;;;8.68;1.92;;;12.30;99.90;;;;;;5114461;28;20031;-38
2024/04/05 00:32:36;;;;;;;11.52;2.00;;;12.30;99.90;;;;;;5116157;28;20062;-38
2024/04/05 00:35:02;;;;;;;7.07;1.70;;;12.30;99.90;;;;;;5120966;27;20126;-37
2024/04/05 00:37:27;;;;;;;5.88;1.92;;;12.40;99.90;;;;;;5118251;28;20055;-39
2024/04/05 00:39:53;;;;;;;10.02;2.13;;;12.40;99.90;;;;;;5109065;28;20535;-38
2024/04/05 00:42:19;;;;;;;9.40;2.67;;;12.40;99.90;;;;;;5118876;28;20066;-36
2024/04/05 00:44:44;;;;;;;11.98;2.60;;;12.40;99.90;;;;;;5118037;28;20806;-36
2024/04/05 00:47:10;;;;;;;7.80;2.35;;;12.40;99.90;;;;;;5119222;28;20031;-36
2024/04/05 00:49:35;;;;;;;9.48;2.10;;;12.30;99.90;;;;;;5109396;28;20476;-38
2024/04/05 00:52:03;;;;;;;7.93;1.98;;;12.40;99.90;;;;;;5120208;28;20027;-34
2024/04/05 00:54:28;;;;;;;8.48;2.38;;;12.40;99.90;;;;;;5108605;27;20039;-34
2024/04/05 00:56:55;;;;;;;8.00;2.40;;;12.40;99.90;;;;;;5124668;27;20487;-38
2024/04/05 00:59:21;;;;;;;10.38;2.55;;;12.40;99.90;;;;;;5111741;27;20140;-37
2024/04/05 01:01:47;;;;;;;8.63;2.33;;;12.40;99.90;;;;;;5123364;27;20115;-38
2024/04/05 01:04:13;;;;;;;7.13;2.53;;;12.50;99.90;;;;;;5120302;27;20027;-38
2024/04/05 01:06:42;;;;;;;7.72;2.38;;;12.50;99.90;;;;;;5107479;27;20027;-36
2024/04/05 01:09:08;;;;;;;8.48;2.35;;;12.50;99.90;;;;;;5110046;27;20023;-34
2024/04/05 01:11:33;;;;;;;5.32;2.10;;;12.60;99.90;;;;;;5118665;27;20023;-36
2024/04/05 01:13:59;;;;;;;6.38;1.88;;;12.60;99.90;;;;;;5119278;27;20334;-38
2024/04/05 01:16:25;;;;;;;10.60;1.88;;;12.60;99.90;;;;;;5119834;27;20068;-38
2024/04/05 01:18:56;;;;;;;10.55;2.20;;;12.70;99.90;;;;;;5119556;27;20127;-38
2024/04/05 01:21:21;;;;;;;8.35;2.63;;;12.70;99.90;;;;;;5119931;27;20513;-38
2024/04/05 01:23:48;;;;;;;8.45;2.10;;;12.70;99.90;;;;;;5120774;27;20031;-38
2024/04/05 01:26:14;;;;;;;5.10;1.65;;;12.70;99.90;;;;;;5114887;27;20367;-37
2024/04/05 01:28:39;;;;;;;5.15;1.98;;;12.80;99.90;;;;;;5121086;27;20030;-38
2024/04/05 01:31:05;;;;;;;8.38;3.00;;;12.80;99.90;;;;;;5119709;27;20552;-38
2024/04/05 01:33:36;;;;;;;6.28;1.83;;;12.80;99.90;;;;;;5123958;27;20561;-38
2024/04/05 01:36:02;;;;;;;9.18;2.08;;;12.80;99.90;;;;;;5115230;27;20386;-34
2024/04/05 01:38:28;;;;;;;6.20;1.80;;;12.80;99.90;;;;;;5103349;28;20016;-36
2024/04/05 01:40:56;;;;;;;6.07;2.20;;;12.80;99.90;;;;;;5115758;27;20492;-37
2024/04/05 01:43:21;;;;;;;7.78;1.98;;;12.80;99.90;;;;;;5122067;27;20031;-36
2024/04/05 01:45:47;;;;;;;8.20;2.08;;;12.90;99.90;;;;;;5119233;27;20031;-35
2024/04/05 01:48:12;;;;;;;9.13;2.13;;;12.90;99.90;;;;;;5103949;27;20076;-37
2024/04/05 01:50:38;;;;;;;6.05;1.73;;;12.90;99.90;;;;;;5110816;27;20027;-38
2024/04/05 01:53:04;;;;;;;8.55;1.70;;;12.90;99.90;;;;;;5122739;27;20031;-39
2024/04/05 01:55:31;;;;;;;6.38;1.70;;;12.90;99.90;;;;;;5117255;27;20144;-37
2024/04/05 01:57:59;;;;;;;6.53;1.88;;;13.00;99.90;;;;;;5116478;27;20023;-37
2024/04/05 02:00:25;;;;;;;6.47;1.90;;;13.00;99.90;;;;;;5119920;27;20863;-37
2024/04/05 02:02:51;;;;;;;5.93;1.65;;;13.00;99.90;;;;;;5123499;27;20068;-37
2024/04/05 02:05:16;;;;;;;8.48;1.85;;;13.00;99.90;;;;;;5120538;27;20023;-37
2024/04/05 02:07:42;;;;;;;6.18;1.52;;;13.00;99.90;;;;;;5122952;27;20165;-37
2024/04/05 02:10:10;;;;;;;7.88;1.88;;;13.00;99.90;;;;;;5122104;27;20054;-36
2024/04/05 02:12:35;;;;;;;5.80;1.88;;;13.00;99.90;;;;;;5121887;27;20523;-37
2024/04/05 02:15:01;;;;;;;6.10;2.30;;;13.00;99.90;;;;;;5123184;27;20527;-38
2024/04/05 02:17:26;;;;;;;8.50;2.20;;;13.00;99.90;;;;;;5117852;27;20069;-38
2024/04/05 02:19:52;;;;;;;9.15;2.20;;;13.00;99.90;;;;;;5114600;27;20070;-37
2024/04/05 02:22:18;;;;;;;7.20;2.00;;;13.00;99.90;;;;;;5118970;27;20148;-35
2024/04/05 02:24:44;;;;;;;9.35;2.25;;;13.00;99.90;;;;;;5123274;27;20098;-33
2024/04/05 02:27:09;;;;;;;7.22;2.35;;;12.90;99.90;;;;;;5111171;27;20506;-35
2024/04/05 02:29:36;;;;;;;7.13;1.88;;;12.90;99.90;;;;;;5121929;27;20793;-34
2024/04/05 02:32:05;;;;;;;6.30;1.95;;;12.90;99.90;;;;;;5111779;27;20168;-36
2024/04/05 02:34:30;;;;;;;6.25;2.05;;;12.90;99.90;;;;;;5119574;27;20490;-37
2024/04/05 02:36:56;;;;;;;6.82;2.10;;;12.80;99.90;;;;;;5115910;27;20811;-35
2024/04/05 02:39:21;;;;;;;8.00;1.63;;;12.80;99.90;;;;;;5115747;27;20047;-37
2024/04/05 02:41:47;;;;;;;4.72;1.88;;;12.80;99.90;;;;;;5118057;27;20015;-33
2024/04/05 02:44:14;;;;;;;5.22;1.90;;;12.80;99.90;;;;;;5103589;27;20027;-39
2024/04/05 02:46:41;;;;;;;10.18;3.03;;;12.90;99.90;;;;;;5102745;27;20868;-38
2024/04/05 02:49:07;;;;;;;6.30;2.03;;;12.80;99.90;;;;;;5112810;27;20034;-38
2024/04/05 02:51:32;;;;;;;5.88;2.28;;;12.80;99.90;;;;;;5108487;27;20131;-38
2024/04/05 02:53:58;;;;;;;8.77;2.08;;;12.80;99.90;;;;;;5112589;27;20624;-35
2024/04/05 02:56:23;;;;;;;4.30;1.55;;;12.80;99.90;;;;;;5107788;27;20031;-34
2024/04/05 02:58:49;;;;;;;5.50;1.85;;;12.80;99.90;;;;;;5109592;27;20099;-38
2024/04/05 03:01:15;;;;;;;6.53;1.70;;;12.80;99.90;;;;;;5120206;27;20498;-39
2024/04/05 03:03:40;;;;;;;5.40;2.15;;;12.80;99.90;;;;;;5109436;27;20042;-37
2024/04/05 03:06:06;;;;;;;5.35;1.70;;;12.80;99.90;;;;;;5121577;27;20019;-38
2024/04/05 03:08:32;;;;;;;7.68;2.08;;;12.80;99.90;;;;;;5110139;27;20032;-36
2024/04/05 03:10:57;;;;;;;8.63;2.25;;;12.80;99.90;;;;;;5119183;27;20043;-38
2024/04/05 03:13:24;;;;;;;8.20;1.83;;;12.70;99.90;;;;;;5117360;27;20062;-37
2024/04/05 03:15:49;;;;;;;6.97;1.70;;;12.70;99.90;;;;;;5119989;27;20027;-38
2024/04/05 03:18:24;;;;;;;7.35;2.13;;;12.70;99.90;;;;;;5114895;27;20027;-38
2024/04/05 03:20:50;;;;;;;6.28;1.75;;;12.70;99.90;;;;;;5115878;27;20050;-37
2024/04/05 03:23:15;;;;;;;5.60;1.70;;;12.70;99.90;;;;;;5115373;27;20258;-37
2024/04/05 03:25:41;;;;;;;8.43;3.15;;;12.70;99.90;;;;;;5116987;27;20504;-38
2024/04/05 03:28:12;;;;;;;7.38;1.73;;;12.70;99.90;;;;;;5118890;27;20097;-37
2024/04/05 03:30:38;;;;;;;6.97;2.08;;;12.70;99.90;;;;;;5111391;27;20019;-36
2024/04/05 03:33:04;;;;;;;6.10;1.73;;;12.70;99.90;;;;;;5119653;27;20519;-39
2024/04/05 03:35:29;;;;;;;11.95;2.30;;;12.70;99.90;;;;;;5111576;27;20519;-36
2024/04/05 03:37:56;;;;;;;8.48;2.13;;;12.80;99.90;;;;;;5120965;27;20061;-37
2024/04/05 03:40:22;;;;;;;6.28;1.83;;;12.70;99.90;;;;;;5111994;27;20032;-37
2024/04/05 03:42:48;;;;;;;3.83;1.60;;;12.80;99.90;;;;;;5106506;27;20026;-38
2024/04/05 03:45:14;;;;;;;8.27;1.85;;;12.80;99.90;;;;;;5113483;27;20022;-37
2024/04/05 03:47:40;;;;;;;7.63;1.95;;;12.80;99.90;;;;;;5121761;27;20031;-38
2024/04/05 03:50:06;;;;;;;5.47;2.00;;;12.80;99.90;;;;;;5107555;27;20027;-33
2024/04/05 03:52:35;;;;;;;9.00;2.35;;;12.80;99.90;;;;;;5122019;27;20126;-36
2024/04/05 03:55:00;;;;;;;5.85;1.80;;;12.90;99.90;;;;;;5115817;27;20035;-38
2024/04/05 03:57:26;;;;;;;7.20;1.77;;;12.90;99.90;;;;;;5120691;27;20038;-33
2024/04/05 03:59:54;;;;;;;8.32;2.40;;;12.90;99.90;;;;;;5116106;28;20118;-31
2024/04/05 04:02:23;;;;;;;7.43;2.22;;;12.90;99.90;;;;;;5121332;27;20030;-32
2024/04/05 04:04:49;;;;;;;6.03;1.77;;;12.90;99.90;;;;;;5115504;27;20084;-37
2024/04/05 04:10:00;;;;;;;7.82;2.38;;;12.90;99.90;;;;;;5104585;28;20028;-38
2024/04/05 04:12:26;;;;;;;5.28;1.77;;;12.90;99.90;;;;;;5114372;28;20386;-38
2024/04/05 04:14:54;;;;;;;6.47;1.98;;;12.90;99.90;;;;;;5116210;28;20047;-37
2024/04/05 04:17:20;;;;;;;6.85;2.30;;;12.90;99.90;;;;;;5108611;28;20028;-37
2024/04/05 04:19:46;;;;;;;9.18;2.10;;;12.90;99.90;;;;;;5115217;28;20382;-37
2024/04/05 04:22:14;;;;;;;6.43;2.25;;;12.90;99.90;;;;;;5109417;28;20019;-37
2024/04/05 04:24:40;;;;;;;6.55;2.00;;;12.90;99.90;;;;;;5117624;28;20031;-37
2024/04/05 04:27:07;;;;;;;5.68;1.50;;;12.90;99.90;;;;;;5112059;28;20008;-35
2024/04/05 04:29:33;;;;;;;4.90;1.63;;;12.90;99.90;;;;;;5102397;27;20024;-38
2024/04/05 04:31:59;;;;;;;4.68;1.83;;;12.90;99.90;;;;;;5116574;27;20035;-36
2024/04/05 04:34:25;;;;;;;5.65;1.80;;;12.90;99.90;;;;;;5112628;27;20035;-36
2024/04/05 04:36:51;;;;;;;5.20;1.80;;;13.00;99.90;;;;;;5118924;27;20493;-34
2024/04/05 04:39:16;;;;;;;5.47;1.85;;;13.00;99.90;;;;;;5103985;28;20027;-35
2024/04/05 04:41:42;;;;;;;6.40;1.92;;;12.90;99.90;;;;;;5116474;27;20023;-36
2024/04/05 04:44:10;;;;;;;4.78;1.80;;;12.90;99.90;;;;;;5120622;27;20027;-38
2024/04/05 04:46:36;;;;;;;7.32;2.25;;;12.90;99.90;;;;;;5119969;27;20083;-35
2024/04/05 04:49:04;;;;;;;6.20;1.80;;;12.90;99.90;;;;;;5111524;27;20031;-37
2024/04/05 04:51:30;;;;;;;6.97;1.98;;;12.90;99.90;;;;;;5120854;27;20039;-38
2024/04/05 04:53:56;;;;;;;6.72;1.63;;;12.90;99.90;;;;;;5114420;27;20027;-38
2024/04/05 04:56:21;;;;;;;6.20;1.73;;;12.90;99.90;;;;;;5121032;27;20076;-37
2024/04/05 04:58:49;;;;;;;5.10;1.85;;;12.80;99.90;;;;;;5113576;27;20576;-37
2024/04/05 05:01:15;;;;;;;5.30;1.80;;;12.90;99.90;;;;;;5113858;27;20381;-37
2024/04/05 05:03:41;;;;;;;4.90;1.73;;;12.90;99.90;;;;;;5115600;27;20481;-37
2024/04/05 05:06:06;;;;;;;4.53;1.50;;;12.90;99.90;;;;;;5122922;27;20011;-38
2024/04/05 05:08:32;;;;;;;6.90;1.60;;;12.90;99.90;;;;;;5112692;27;20698;-38
2024/04/05 05:10:57;;;;;;;10.65;2.20;;;12.90;99.90;;;;;;5123503;27;20038;-37
2024/04/05 05:13:23;;;;;;;4.05;1.73;;;12.90;99.90;;;;;;5111939;27;21005;-38
2024/04/05 05:15:48;;;;;;;7.13;2.17;;;12.90;99.90;;;;;;5123353;27;20806;-37
2024/04/05 05:18:17;;;;;;;7.18;1.75;;;12.90;99.90;;;;;;5118174;27;20019;-37
2024/04/05 05:20:47;;;;;;;7.78;2.47;;;12.90;99.90;;;;;;5103040;27;20811;-37
2024/04/05 05:23:13;;;;;;;6.05;2.20;;;12.90;99.90;;;;;;5108542;27;20554;-37
2024/04/05 05:25:41;;;;;;;3.95;2.08;;;12.90;99.90;;;;;;5122676;27;20106;-38
2024/04/05 05:28:07;;;;;;;5.22;2.03;;;12.90;99.90;;;;;;5113517;27;20320;-34
2024/04/05 05:30:33;;;;;;;5.82;1.98;;;12.90;99.90;;;;;;5109147;27;20023;-37
2024/04/05 05:32:58;;;;;;;5.88;1.73;;;13.00;99.90;;;;;;5116048;27;20426;-37
2024/04/05 05:35:24;;;;;;;6.50;1.90;;;13.00;99.90;;;;;;5118213;27;20792;-37
2024/04/05 05:37:50;;;;;;;6.60;2.42;;;13.00;99.90;;;;;;5114014;27;20019;-38
2024/04/05 05:40:15;;;;;;;7.97;1.90;;;13.00;99.90;;;;;;5123241;27;20582;-38
2024/04/05 05:42:41;;;;;;;6.72;2.35;;;13.00;99.90;;;;;;5119793;27;20047;-37
2024/04/05 05:45:07;;;;;;;8.77;2.13;;;13.00;99.90;;;;;;5111182;27;20124;-37
2024/04/05 05:47:32;;;;;;;4.93;1.58;;;13.00;99.90;;;;;;5110660;27;20685;-38
2024/04/05 05:49:58;;;;;;;7.85;2.13;;;13.10;99.90;;;;;;5112517;27;20135;-33
2024/04/05 05:52:24;;;;;;;6.75;2.65;;;13.10;99.90;;;;;;5122813;27;20015;-35
2024/04/05 05:54:53;;;;;;;7.78;2.55;;;13.10;99.90;;;;;;5123138;27;20031;-35
2024/04/05 05:57:19;;;;;;;6.18;2.40;;;13.20;99.90;;;;;;5123546;27;20066;-37
2024/04/05 05:59:45;;;;;;;5.68;1.52;;;13.20;99.90;;;;;;5110920;27;20015;-35
2024/04/05 06:02:10;;;;;;;4.38;2.08;;;13.20;99.90;;;;;;5123350;27;20019;-32
2024/04/05 06:04:36;;;;;;;4.43;1.83;;;13.30;99.90;;;;;;5112335;27;20034;-37
2024/04/05 06:07:01;;;;;;;7.80;2.30;;;13.30;99.90;;;;;;5124068;27;20044;-35
2024/04/05 06:09:28;;;;;;;4.10;1.83;;;13.30;99.90;;;;;;5112596;27;20826;-35
2024/04/05 06:11:54;;;;;;;5.82;1.80;;;13.30;99.90;;;;;;5120437;27;20050;-35
2024/04/05 06:14:20;;;;;;;4.97;2.00;;;13.30;99.90;;;;;;5117440;27;20483;-36
2024/04/05 06:16:45;;;;;;;5.75;2.40;;;13.30;99.90;;;;;;5123104;27;20378;-34
2024/04/05 06:19:14;;;;;;;4.15;1.75;;;13.40;99.90;;;;;;5116452;27;20059;-36
2024/04/05 06:21:39;;;;;;;7.30;2.03;;;13.40;99.90;;;;;;5108661;27;20027;-37
2024/04/05 06:24:05;;;;;;;8.43;1.95;;;13.50;99.90;;;;;;5104352;27;20702;-37
2024/04/05 06:26:35;;;;;;;4.30;1.70;;;13.50;99.90;;;;;;5112172;27;20063;-39
2024/04/05 06:29:01;;;;;;;4.07;1.52;;;13.60;99.90;;;;;;5105344;27;20031;-38
2024/04/05 06:31:26;;;;;;;6.50;1.85;;;13.70;99.90;;;;;;5109932;27;20091;-33
2024/04/05 06:33:52;;;;;;;3.75;1.52;;;13.80;99.90;;;;;;5120785;27;20591;-32
2024/04/05 06:36:20;;;;;;;2.80;1.40;;;13.80;99.90;;;;;;5120701;27;20016;-35
2024/04/05 06:38:46;;;;;;;4.63;1.60;;;13.90;99.90;;;;;;5121478;27;20031;-36
2024/04/05 06:41:11;;;;;;;6.22;1.83;;;13.90;99.90;;;;;;5110538;27;20023;-36
2024/04/05 06:43:37;;;;;;;6.15;1.48;;;14.00;99.90;;;;;;5111739;27;20038;-35
2024/04/05 06:46:10;;;;;;;3.55;1.33;;;14.00;99.90;;;;;;5117411;27;20845;-37
2024/04/05 06:48:36;;;;;;;3.10;1.27;;;14.10;99.90;;;;;;5122135;27;20031;-34
2024/04/05 06:51:10;;;;;;;4.10;1.40;;;14.10;99.90;;;;;;5108918;27;20081;-37
2024/04/05 06:53:36;;;;;;;4.88;1.55;;;14.20;99.90;;;;;;5110085;27;20030;-37
2024/04/05 06:56:11;;;;;;;4.82;1.60;;;14.20;99.90;;;;;;5117300;27;20027;-37
2024/04/05 06:58:37;;;;;;;4.32;1.40;;;14.30;99.90;;;;;;5108743;27;20059;-36
2024/04/05 07:01:03;;;;;;;3.60;1.42;;;14.30;99.90;;;;;;5117535;27;20023;-37
2024/04/05 07:03:29;;;;;;;3.40;1.30;;;14.30;99.90;;;;;;5121309;27;20034;-37
2024/04/05 07:06:03;;;;;;;4.65;1.30;;;14.40;99.90;;;;;;5117822;27;20095;-38
2024/04/05 07:08:31;;;;;;;3.17;1.30;;;14.40;99.90;;;;;;5112617;27;20046;-37
2024/04/05 07:10:58;;;;;;;3.92;1.80;;;14.50;99.90;;;;;;5117669;27;20019;-38
2024/04/05 07:13:25;;;;;;;4.07;1.50;;;14.50;99.90;;;;;;5108948;27;20027;-38
2024/04/05 07:15:51;;;;;;;4.35;1.45;;;14.60;99.90;;;;;;5112842;27;20168;-37
2024/04/05 07:18:24;;;;;;;4.25;1.27;;;14.60;99.90;;;;;;5111508;27;20126;-38
2024/04/05 07:20:50;;;;;;;3.30;1.40;;;14.60;99.90;;;;;;5119116;27;20051;-37
2024/04/05 07:23:16;;;;;;;4.20;1.25;;;14.70;99.90;;;;;;5120879;27;20114;-37
2024/04/05 07:25:45;;;;;;;4.60;1.50;;;14.70;99.90;;;;;;5119760;27;20036;-37
2024/04/05 07:28:11;;;;;;;3.42;1.50;;;14.70;99.90;;;;;;5117571;27;20023;-37
2024/04/05 07:30:37;;;;;;;4.47;1.60;;;14.70;99.90;;;;;;5119906;27;20027;-38
2024/04/05 07:33:04;;;;;;;2.45;1.40;;;14.80;99.90;;;;;;5115986;27;20023;-38
2024/04/05 07:35:30;;;;;;;2.63;1.20;;;14.80;99.90;;;;;;5121607;27;20126;-35
2024/04/05 07:37:56;;;;;;;3.50;1.80;;;14.80;99.90;;;;;;5108863;27;20020;-35
2024/04/05 07:40:24;;;;;;;2.22;1.23;;;14.80;99.90;;;;;;5120969;27;20035;-34
2024/04/05 07:42:54;;;;;;;3.22;1.38;;;14.80;99.90;;;;;;5111605;27;20023;-38
2024/04/05 07:45:21;;;;;;;2.65;1.48;;;14.80;99.90;;;;;;5103745;27;20030;-37
2024/04/05 07:47:49;;;;;;;3.45;1.30;;;14.80;99.90;;;;;;5105401;27;20030;-37
2024/04/05 07:50:16;;;;;;;2.50;1.10;;;14.80;99.90;;;;;;5117898;27;20038;-33
2024/04/05 07:52:42;;;;;;;3.78;1.40;;;14.80;99.90;;;;;;5116403;27;20038;-35
2024/04/05 07:55:08;;;;;;;3.50;1.38;;;14.80;99.90;;;;;;5121514;27;20035;-36
2024/04/05 07:57:36;;;;;;;4.70;1.63;;;14.80;99.90;;;;;;5115583;27;20023;-37
2024/04/05 08:00:02;;;;;;;4.85;1.80;;;14.90;99.90;;;;;;5114277;28;20027;-37
2024/04/05 08:02:29;;;;;;;3.70;1.40;;;14.90;99.90;;;;;;5115343;27;20068;-36
2024/04/05 08:04:55;;;;;;;4.95;2.13;;;14.90;99.90;;;;;;5110814;27;20119;-36
2024/04/05 08:07:24;;;;;;;3.63;1.70;;;15.00;99.90;;;;;;5105433;27;20474;-37
2024/04/05 08:09:53;;;;;;;3.90;1.70;;;15.10;99.90;;;;;;5112460;27;20067;-39
2024/04/05 08:12:19;;;;;;;4.97;1.70;;;15.10;99.90;;;;;;5123883;27;20027;-37
2024/04/05 08:14:45;;;;;;;5.38;1.73;;;15.10;99.90;;;;;;5116357;27;20045;-36
2024/04/05 08:17:12;;;;;;;2.45;1.27;;;15.10;99.90;;;;;;5124154;27;20023;-38
2024/04/05 08:19:37;;;;;;;3.70;1.27;;;15.10;99.90;;;;;;5113109;27;20047;-38
2024/04/05 08:22:04;;;;;;;5.22;1.42;;;15.00;99.90;;;;;;5125736;27;20034;-35
2024/04/05 08:24:29;;;;;;;3.72;1.58;;;15.00;99.90;;;;;;5115591;27;20034;-38
2024/04/05 08:26:55;;;;;;;3.92;1.55;;;15.00;99.90;;;;;;5125227;27;20033;-36
2024/04/05 08:29:24;;;;;;;6.53;1.70;;;15.00;99.90;;;;;;5118216;27;20125;-38
2024/04/05 08:31:50;;;;;;;4.57;1.85;;;15.00;99.90;;;;;;5103939;28;20360;-36
2024/04/05 08:34:16;;;;;;;3.47;1.50;;;14.90;99.90;;;;;;5112409;27;20859;-37
2024/04/05 08:36:47;;;;;;;4.55;1.35;;;14.90;99.90;;;;;;5125097;27;20034;-38
2024/04/05 08:39:13;;;;;;;2.95;1.13;;;14.90;99.90;;;;;;5119834;27;20023;-38
2024/04/05 08:41:42;;;;;;;4.32;1.30;;;14.90;99.90;;;;;;5123376;27;20026;-37
2024/04/05 08:44:08;;;;;;;3.85;1.48;;;14.90;99.90;;;;;;5122335;27;20134;-37
2024/04/05 08:46:34;;;;;;;5.50;1.88;;;14.90;99.90;;;;;;5123509;27;20362;-38
2024/04/05 08:49:01;;;;;;;3.60;1.33;;;15.00;99.90;;;;;;5121578;27;20023;-33
2024/04/05 08:51:27;;;;;;;3.30;1.13;;;15.00;99.90;;;;;;5112994;27;20019;-36
2024/04/05 08:53:53;;;;;;;7.68;1.90;;;15.00;99.90;;;;;;5122424;27;20445;-37
2024/04/05 08:56:18;;;;;;;5.80;1.95;;;15.00;99.90;;;;;;5123709;27;20039;-38
2024/04/05 08:58:44;;;;;;;3.50;1.33;;;15.00;99.90;;;;;;5122402;27;20422;-35
2024/04/05 09:01:10;;;;;;;4.60;1.70;;;15.00;99.90;;;;;;5117490;27;20015;-37
2024/04/05 09:03:36;;;;;;;3.13;1.63;;;15.00;99.90;;;;;;5106380;27;20027;-36
2024/04/05 09:06:01;;;;;;;4.07;1.55;;;15.00;99.90;;;;;;5123111;27;20034;-38
2024/04/05 09:08:27;;;;;;;6.88;1.83;;;15.00;99.90;;;;;;5125003;27;20023;-37
2024/04/05 09:10:52;;;;;;;4.35;1.65;;;15.00;99.90;;;;;;5112330;27;20031;-38
2024/04/05 09:13:20;;;;;;;5.50;1.90;;;15.00;99.90;;;;;;5121831;27;20031;-38
2024/04/05 09:15:52;;;;;;;7.95;2.38;;;15.00;99.90;;;;;;5116882;27;20044;-38
2024/04/05 09:18:28;;;;;;;3.00;1.52;;;15.00;99.90;;;;;;5104661;27;20038;-39
2024/04/05 09:20:55;;;;;;;4.63;1.73;;;15.00;99.90;;;;;;5114950;27;20095;-38
2024/04/05 09:23:20;;;;;;;3.70;1.42;;;15.00;99.90;;;;;;5117559;27;20030;-39
2024/04/05 09:25:59;;;;;;;1.92;1.20;;;15.00;99.90;;;;;;5115262;27;20031;-37
2024/04/05 09:28:29;;;;;;;3.92;1.50;;;15.00;99.90;;;;;;5121394;27;20031;-41
2024/04/05 09:30:57;;;;;;;4.85;1.50;;;15.10;99.90;;;;;;5117129;27;20031;-38
2024/04/05 09:33:23;;;;;;;5.55;1.75;;;15.10;99.90;;;;;;5123310;27;20111;-38
2024/04/05 09:35:49;;;;;;;6.75;1.88;;;15.10;99.90;;;;;;5118846;27;20018;-33
2024/04/05 09:38:19;;;;;;;5.35;1.80;;;15.10;99.90;;;;;;5110682;27;20069;-37
2024/04/05 09:40:46;;;;;;;4.82;1.60;;;15.10;99.90;;;;;;5106452;27;20679;-37
2024/04/05 09:43:13;;;;;;;5.95;1.70;;;15.10;99.90;;;;;;5121902;27;20023;-38
2024/04/05 09:45:42;;;;;;;3.60;1.58;;;15.10;99.90;;;;;;5120299;27;20031;-37
2024/04/05 09:48:08;;;;;;;4.03;1.73;;;15.10;99.90;;;;;;5112170;27;20072;-35
2024/04/05 09:50:36;;;;;;;5.10;1.67;;;15.10;99.90;;;;;;5122495;27;20032;-38
2024/04/05 09:53:04;;;;;;;3.67;1.65;;;15.10;99.90;;;;;;5112514;27;20038;-36
2024/04/05 09:55:40;;;;;;;5.07;2.08;;;15.10;99.90;;;;;;5119966;27;20819;-38
2024/04/05 09:58:10;;;;;;;2.28;1.48;;;15.10;99.90;;;;;;5120327;27;20102;-37
2024/04/05 10:00:38;;;;;;;3.45;1.77;;;15.10;99.90;;;;;;5121577;27;20067;-37
2024/04/05 10:03:05;;;;;;;3.08;1.50;;;15.10;99.90;;;;;;5108630;27;20023;-38
2024/04/05 10:05:32;;;;;;;5.88;1.90;;;15.10;99.90;;;;;;5120992;27;20023;-38
2024/04/05 10:08:16;;;;;;;5.03;2.10;;;15.20;99.90;;;;;;5108925;27;20040;-38
2024/04/05 10:10:42;;;;;;;4.43;1.83;;;15.20;99.90;;;;;;5122777;27;20023;-30
2024/04/05 10:13:12;;;;;;;3.42;1.67;;;15.20;99.90;;;;;;5109862;27;20020;-39
2024/04/05 10:15:39;;;;;;;3.85;1.60;;;15.20;99.90;;;;;;5122531;27;20039;-39
2024/04/05 10:18:08;;;;;;;4.32;1.80;;;15.20;99.90;;;;;;5116834;27;20039;-39
2024/04/05 10:20:38;;;;;;;3.00;1.48;;;15.30;99.90;;;;;;5115527;27;20043;-38
2024/04/05 10:23:04;;;;;;;4.07;1.65;;;15.40;99.90;;;;;;5110064;27;20566;-37
2024/04/05 10:25:30;;;;;;;4.05;1.45;;;15.50;99.90;;;;;;5120215;27;20035;-38
2024/04/05 10:27:55;;;;;;;5.75;1.70;;;15.60;99.90;;;;;;5117838;27;20027;-37
2024/04/05 10:30:22;;;;;;;3.90;1.95;;;15.70;99.90;;;;;;5105446;27;20119;-36
2024/04/05 10:32:58;;;;;;;3.15;2.08;;;15.90;99.90;;;;;;5109046;27;20102;-36
2024/04/05 10:35:26;;;;;;;5.07;1.85;;;15.90;99.90;;;;;;5122102;27;20499;-37
2024/04/05 10:37:59;;;;;;;4.90;1.80;;;16.00;99.90;;;;;;5117383;27;20484;-38
2024/04/05 10:40:25;;;;;;;3.50;1.50;;;16.00;99.90;;;;;;5108285;27;20028;-40
2024/04/05 10:42:54;;;;;;;3.30;1.60;;;16.00;99.90;;;;;;5104959;27;20048;-37
2024/04/05 10:45:20;;;;;;;3.65;1.50;;;16.00;99.90;;;;;;5114605;27;20651;-38
2024/04/05 10:47:53;;;;;;;5.05;1.55;;;16.10;99.90;;;;;;5118579;27;20130;-35
2024/04/05 10:50:25;;;;;;;3.10;1.60;;;16.20;99.90;;;;;;5112048;27;20023;-38
2024/04/05 10:52:52;;;;;;;4.93;1.65;;;16.30;99.90;;;;;;5102332;27;20034;-36
2024/04/05 10:55:19;;;;;;;4.50;1.83;;;16.40;99.90;;;;;;5120545;27;20031;-39
2024/04/05 10:57:44;;;;;;;3.35;1.52;;;16.50;99.90;;;;;;5120855;27;20492;-37
2024/04/05 11:00:11;;;;;;;2.85;1.60;;;16.50;99.90;;;;;;5112375;27;20051;-37
2024/04/05 11:02:41;;;;;;;4.38;2.10;;;16.50;99.90;;;;;;5101447;27;20401;-38
2024/04/05 11:05:13;;;;;;;3.20;1.77;;;16.50;99.90;;;;;;5120051;27;20477;-38
2024/04/05 11:07:40;;;;;;;3.90;1.50;;;16.50;99.90;;;;;;5122510;27;20526;-38
2024/04/05 11:10:23;;;;;;;4.88;1.60;;;16.40;99.90;;;;;;5113353;27;20068;-37
2024/04/05 11:12:49;;;;;;;2.65;1.60;;;16.40;99.90;;;;;;5120267;27;20031;-37
2024/04/05 11:15:24;;;;;;;4.85;1.63;;;16.50;99.90;;;;;;5114930;27;20063;-37
2024/04/05 11:18:06;;;;;;;3.20;1.63;;;16.40;99.90;;;;;;5107777;27;20030;-37
2024/04/05 11:20:33;;;;;;;2.43;1.40;;;16.40;99.90;;;;;;5113079;27;20047;-39
2024/04/05 11:23:04;;;;;;;3.30;1.50;;;16.50;99.90;;;;;;5120974;27;20304;-38
2024/04/05 11:25:31;;;;;;;4.53;1.20;;;16.50;99.90;;;;;;5115306;27;20047;-36
2024/04/05 11:28:01;;;;;;;2.50;1.58;;;16.60;99.90;;;;;;5100598;28;20088;-38
2024/04/05 11:30:26;;;;;;;2.08;1.30;;;16.70;99.90;;;;;;5114419;27;20035;-37
2024/04/05 11:32:52;;;;;;;4.13;1.38;;;16.70;99.90;;;;;;5121362;27;20116;-36
2024/04/05 11:35:17;;;;;;;1.75;1.48;;;16.80;99.90;;;;;;5111262;27;20031;-39
2024/04/05 11:37:47;;;;;;;3.22;1.75;;;16.90;99.90;;;;;;5118029;27;20016;-36
2024/04/05 11:40:13;;;;;;;2.83;1.27;;;16.90;99.90;;;;;;5117997;27;20042;-38
2024/04/05 11:42:39;;;;;;;3.17;1.25;;;17.00;99.90;;;;;;5119304;27;20507;-38
2024/04/05 11:45:06;;;;;;;2.72;1.25;;;16.90;99.90;;;;;;5116163;27;20027;-37
2024/04/05 11:47:36;;;;;;;3.13;1.35;;;16.90;99.90;;;;;;5106371;27;20043;-36
2024/04/05 11:50:03;;;;;;;2.10;1.30;;;16.90;99.90;;;;;;5105012;27;20482;-37
2024/04/05 11:52:29;;;;;;;2.55;1.00;;;16.90;99.90;;;;;;5109284;27;20770;-36
2024/04/05 11:54:54;;;;;;;2.47;1.30;;;16.90;99.90;;;;;;5105231;28;20037;-37
2024/04/05 11:57:20;;;;;;;2.85;1.55;;;16.80;99.90;;;;;;5107283;28;20019;-36
2024/04/05 11:59:49;;;;;;;1.63;1.00;;;16.80;99.90;;;;;;5119159;27;20575;-39
2024/04/05 12:02:14;;;;;;;3.03;1.40;;;16.70;99.90;;;;;;5108152;27;20015;-38
2024/04/05 12:04:40;;;;;;;3.55;1.40;;;16.60;99.90;;;;;;5119646;28;20031;-37
2024/04/05 12:07:09;;;;;;;2.40;1.38;;;16.60;99.90;;;;;;5107396;28;20019;-34
2024/04/05 12:09:36;;;;;;;3.40;1.50;;;16.60;99.90;;;;;;5121092;27;20030;-39
2024/04/05 12:12:05;;;;;;;4.68;1.48;;;16.50;99.90;;;;;;5108179;27;20076;-37
2024/04/05 12:14:34;;;;;;;2.50;1.30;;;16.50;99.90;;;;;;5120508;27;20043;-38
2024/04/05 12:17:00;;;;;;;2.63;1.33;;;16.50;99.90;;;;;;5119217;27;20023;-38
2024/04/05 12:19:26;;;;;;;2.08;1.65;;;16.40;99.90;;;;;;5104289;28;20062;-36
2024/04/05 12:21:52;;;;;;;5.03;1.60;;;16.40;99.90;;;;;;5114794;27;20342;-37
2024/04/05 12:24:17;;;;;;;2.63;1.10;;;16.40;99.90;;;;;;5101320;28;20474;-38
2024/04/05 12:26:43;;;;;;;5.22;1.27;;;16.40;99.90;;;;;;5111637;28;20031;-38
2024/04/05 12:29:09;;;;;;;3.78;1.48;;;16.40;99.90;;;;;;5105298;28;20067;-37
2024/04/05 12:31:34;;;;;;;3.88;1.40;;;16.40;99.90;;;;;;5104422;28;20065;-37
2024/04/05 12:34:00;;;;;;;4.55;1.85;;;16.40;99.90;;;;;;5110268;28;20065;-37
2024/04/05 12:36:25;;;;;;;2.90;1.63;;;16.40;99.90;;;;;;5115728;27;20130;-37
2024/04/05 12:38:56;;;;;;;2.80;1.30;;;16.40;99.90;;;;;;5111265;28;20051;-36
2024/04/05 12:41:27;;;;;;;3.88;1.40;;;16.30;99.90;;;;;;5114748;28;20249;-37
2024/04/05 12:43:52;;;;;;;3.10;1.60;;;16.30;99.90;;;;;;5116495;28;20034;-36
2024/04/05 12:46:18;;;;;;;3.25;1.40;;;16.20;99.90;;;;;;5116471;28;20035;-38